createdAt,value
2023-01-21T04:02:36.806Z,22.97
2023-01-21T04:05:04.447Z,23.70
2023-01-21T04:07:31.665Z,23.27
2023-01-21T04:09:58.844Z,23.20
2023-01-21T04:12:26.075Z,23.60
2023-01-21T04:14:53.300Z,23.83
2023-01-21T04:17:20.564Z,23.17
2023-01-21T04:19:47.704Z,24.33
2023-01-21T04:22:14.852Z,23.70
2023-01-21T04:24:42.040Z,25.27
2023-01-21T04:27:09.247Z,24.63
2023-01-21T04:29:36.437Z,24.70
2023-01-21T04:32:04.276Z,27.10
2023-01-21T04:34:31.439Z,25.40
2023-01-21T04:36:58.558Z,26.93
2023-01-21T04:39:25.766Z,25.07
2023-01-21T04:41:52.982Z,26.53
2023-01-21T04:44:20.093Z,25.10
2023-01-21T04:46:47.318Z,26.13
2023-01-21T04:49:14.515Z,25.70
2023-01-21T04:51:41.686Z,27.43
2023-01-21T04:54:11.299Z,26.30
2023-01-21T04:56:38.604Z,27.17
2023-01-21T04:59:05.852Z,27.20
2023-01-21T05:01:32.993Z,25.73
2023-01-21T05:04:00.203Z,26.27
2023-01-21T05:06:27.421Z,27.60
2023-01-21T05:08:54.551Z,25.70
2023-01-21T05:11:21.847Z,25.30
2023-01-21T05:13:48.977Z,25.37
2023-01-21T05:16:16.183Z,24.63
2023-01-21T05:18:46.715Z,23.27
2023-01-21T05:21:14.057Z,24.70
2023-01-21T05:23:41.206Z,24.90
2023-01-21T05:26:08.390Z,24.40
2023-01-21T05:28:35.535Z,23.87
2023-01-21T05:31:03.767Z,25.30
2023-01-21T05:33:34.831Z,25.43
2023-01-21T05:36:03.488Z,25.47
2023-01-21T05:38:30.994Z,25.60
2023-01-21T05:41:02.733Z,25.20
2023-01-21T05:43:30.309Z,26.67
2023-01-21T05:45:57.547Z,25.40
2023-01-21T05:48:25.135Z,26.23
2023-01-21T05:50:52.439Z,26.03
2023-01-21T05:53:19.684Z,24.73
2023-01-21T05:55:46.962Z,25.27
2023-01-21T05:58:14.271Z,26.53
2023-01-21T06:00:42.060Z,25.40
2023-01-21T06:03:09.630Z,25.83
2023-01-21T06:05:36.818Z,26.90
2023-01-21T06:08:04.214Z,26.60
2023-01-21T06:10:31.424Z,26.63
2023-01-21T06:12:58.590Z,27.83
2023-01-21T06:15:25.953Z,28.07
2023-01-21T06:17:53.733Z,28.40
2023-01-21T06:20:21.581Z,28.33
2023-01-21T06:22:49.258Z,27.73
2023-01-21T06:25:16.522Z,27.30
2023-01-21T06:27:43.818Z,28.23
2023-01-21T06:30:11.725Z,27.80
2023-01-21T06:32:38.976Z,27.43
2023-01-21T06:35:06.335Z,27.37
2023-01-21T06:37:33.507Z,27.50
2023-01-21T06:40:00.689Z,26.77
2023-01-21T06:42:27.979Z,27.40
2023-01-21T06:44:55.144Z,26.37
2023-01-21T06:47:22.422Z,28.93
2023-01-21T06:49:49.588Z,27.97
2023-01-21T06:52:16.799Z,29.13
2023-01-21T06:54:44.204Z,27.87
2023-01-21T06:57:12.111Z,27.23
2023-01-21T06:59:39.444Z,27.90
2023-01-21T07:02:07.593Z,27.57
2023-01-21T07:04:34.875Z,28.57
2023-01-21T07:07:02.166Z,28.30
2023-01-21T07:09:29.354Z,29.00
2023-01-21T07:11:56.589Z,26.27
2023-01-21T07:14:23.802Z,27.47
2023-01-21T07:16:51.001Z,26.53
2023-01-21T07:19:18.172Z,27.10
2023-01-21T07:21:45.413Z,27.23
2023-01-21T07:24:12.553Z,26.33
2023-01-21T07:26:39.833Z,24.57
2023-01-21T07:29:07.143Z,26.07
2023-01-21T07:31:34.739Z,26.63
2023-01-21T07:34:02.378Z,26.17
2023-01-21T07:36:29.665Z,27.50
2023-01-21T07:38:57.067Z,27.83
2023-01-21T07:41:24.375Z,27.80
2023-01-21T07:43:51.857Z,27.43
2023-01-21T07:46:20.903Z,26.63
2023-01-21T07:48:49.044Z,26.70
2023-01-21T07:51:16.275Z,26.37
2023-01-21T07:53:43.632Z,27.33
2023-01-21T07:56:10.797Z,26.60
2023-01-21T07:58:38.328Z,26.00
2023-01-21T08:01:10.082Z,25.17
2023-01-21T08:03:37.705Z,27.53
2023-01-21T08:06:08.045Z,26.53
2023-01-21T08:08:35.251Z,26.33
2023-01-21T08:11:02.466Z,26.13
2023-01-21T08:13:29.721Z,25.37
2023-01-21T08:15:57.233Z,24.80
2023-01-21T08:18:25.212Z,26.07
2023-01-21T08:20:56.986Z,25.80
2023-01-21T08:23:24.866Z,26.53
2023-01-21T08:25:52.545Z,26.33
2023-01-21T08:28:19.793Z,28.80
2023-01-21T08:30:46.974Z,26.57
2023-01-21T08:33:14.410Z,27.37
2023-01-21T08:35:41.605Z,27.13
2023-01-21T08:38:09.001Z,26.90
2023-01-21T08:40:36.286Z,26.40
2023-01-21T08:43:04.717Z,26.90
2023-01-21T08:45:33.255Z,26.73
2023-01-21T08:48:03.879Z,26.77
2023-01-21T08:50:31.147Z,27.20
2023-01-21T08:52:58.410Z,26.13
2023-01-21T08:55:26.764Z,28.27
2023-01-21T08:57:55.728Z,26.07
2023-01-21T09:00:23.987Z,26.00
2023-01-21T09:02:51.753Z,28.23
2023-01-21T09:05:19.750Z,26.80
2023-01-21T09:07:47.071Z,25.60
2023-01-21T09:10:37.576Z,27.00
2023-01-21T09:13:08.603Z,27.30
2023-01-21T09:15:42.662Z,26.07
2023-01-21T09:18:10.051Z,26.70
2023-01-21T09:20:39.779Z,26.53
2023-01-21T09:23:27.673Z,25.97
2023-01-21T09:26:04.682Z,26.30
2023-01-21T09:28:34.141Z,24.53
2023-01-21T09:31:04.561Z,24.70
2023-01-21T09:33:33.405Z,24.50
2023-01-21T09:36:03.756Z,25.17
2023-01-21T09:38:31.631Z,25.00
2023-01-21T09:41:18.860Z,24.13
2023-01-21T09:43:51.255Z,24.90
2023-01-21T09:46:29.868Z,24.30
2023-01-21T09:48:59.493Z,27.13
2023-01-21T09:52:08.817Z,25.00
2023-01-21T09:54:38.988Z,24.93
2023-01-21T09:57:26.346Z,25.23
2023-01-21T09:59:56.320Z,26.43
2023-01-21T10:02:41.449Z,24.47
2023-01-21T10:05:14.452Z,25.80
2023-01-21T10:07:50.881Z,24.87
2023-01-21T10:10:27.068Z,23.90
2023-01-21T10:13:26.152Z,24.47
2023-01-21T10:16:07.388Z,26.83
2023-01-21T10:18:38.729Z,25.53
2023-01-21T10:21:43.752Z,25.13
2023-01-21T10:24:22.045Z,24.23
2023-01-21T10:26:52.944Z,25.40
2023-01-21T10:29:23.879Z,24.37
2023-01-21T10:32:02.644Z,24.80
2023-01-21T10:34:32.351Z,24.33
2023-01-21T10:37:30.317Z,23.47
2023-01-21T10:40:39.628Z,22.63
2023-01-21T10:43:13.860Z,23.27
2023-01-21T10:45:59.268Z,22.40
2023-01-21T10:48:42.828Z,22.23
2023-01-21T10:51:16.076Z,22.20
2023-01-21T10:53:56.679Z,21.63
2023-01-21T10:56:42.240Z,19.27
2023-01-21T10:59:22.534Z,20.33
2023-01-21T11:01:57.840Z,19.83
2023-01-21T11:04:28.660Z,21.23
2023-01-21T11:07:04.616Z,19.90
2023-01-21T11:09:35.002Z,19.73
2023-01-21T11:12:02.940Z,20.83
2023-01-21T11:14:30.229Z,20.47
2023-01-21T11:16:57.835Z,19.13
2023-01-21T11:19:29.014Z,20.20
2023-01-21T11:22:06.054Z,18.97
2023-01-21T11:24:43.652Z,18.93
2023-01-21T11:27:41.097Z,17.47
2023-01-21T11:30:51.221Z,18.23
2023-01-21T11:33:22.299Z,17.47
2023-01-21T11:35:50.006Z,17.40
2023-01-21T11:38:29.882Z,19.30
2023-01-21T11:41:05.884Z,18.97
2023-01-21T11:43:47.922Z,19.30
2023-01-21T11:46:36.955Z,18.90
2023-01-21T11:49:06.688Z,18.23
2023-01-21T11:51:38.718Z,18.10
2023-01-21T11:54:19.292Z,18.63
2023-01-21T11:56:56.757Z,16.93
2023-01-21T11:59:33.996Z,17.83
2023-01-21T12:02:21.800Z,18.93
2023-01-21T12:04:57.034Z,18.33
2023-01-21T12:07:31.556Z,18.47
2023-01-21T12:10:21.649Z,18.97
2023-01-21T12:12:48.756Z,19.00
2023-01-21T12:15:57.048Z,18.63
2023-01-21T12:19:03.470Z,19.60
2023-01-21T12:21:57.588Z,19.20
2023-01-21T12:24:42.898Z,18.00
2023-01-21T12:27:46.763Z,18.93
2023-01-21T12:30:19.669Z,18.57
2023-01-21T12:32:56.654Z,18.57
2023-01-21T12:35:38.857Z,20.13
2023-01-21T12:38:33.602Z,19.37
2023-01-21T12:41:18.638Z,18.80
2023-01-21T12:43:51.047Z,19.90
2023-01-21T12:46:34.598Z,19.07
2023-01-21T12:49:04.150Z,19.27
2023-01-21T12:51:41.868Z,19.87
2023-01-21T12:54:31.571Z,18.57
2023-01-21T12:57:23.863Z,18.43
2023-01-21T12:59:59.787Z,18.47
2023-01-21T13:02:36.007Z,20.03
2023-01-21T13:05:18.068Z,18.53
2023-01-21T13:08:18.154Z,18.70
2023-01-21T13:10:50.495Z,18.50
2023-01-21T13:13:23.944Z,18.23
2023-01-21T13:15:56.309Z,18.97
2023-01-21T13:18:32.488Z,18.27
2023-01-21T13:21:28.405Z,17.83
2023-01-21T13:24:04.350Z,18.50
2023-01-21T13:26:34.561Z,18.00
2023-01-21T13:29:33.768Z,17.93
2023-01-21T13:32:34.165Z,18.10
2023-01-21T13:35:27.679Z,18.43
2023-01-21T13:37:57.590Z,17.20
2023-01-21T13:41:02.078Z,18.33
2023-01-21T13:43:54.511Z,17.40
2023-01-21T13:47:09.719Z,17.63
2023-01-21T13:49:39.842Z,17.17
2023-01-21T13:52:22.111Z,17.83
2023-01-21T13:55:19.253Z,16.37
2023-01-21T13:58:10.593Z,17.40
2023-01-21T14:00:43.266Z,17.30
2023-01-21T14:03:17.598Z,16.33
2023-01-21T14:05:54.228Z,16.30
2023-01-21T14:08:32.169Z,17.57
2023-01-21T14:11:08.426Z,17.97
2023-01-21T14:14:00.192Z,18.00
2023-01-21T14:16:58.264Z,17.40
2023-01-21T14:19:40.589Z,18.13
2023-01-21T14:22:40.044Z,17.87
2023-01-21T14:25:16.513Z,18.13
2023-01-21T14:28:07.968Z,17.93
2023-01-21T14:30:41.746Z,17.70
2023-01-21T14:33:20.120Z,17.73
2023-01-21T14:36:01.096Z,16.93
2023-01-21T14:38:37.753Z,18.17
2023-01-21T14:41:08.240Z,17.27
2023-01-21T14:43:38.546Z,16.87
2023-01-21T14:46:30.342Z,18.00
2023-01-21T14:49:39.121Z,18.13
2023-01-21T14:52:06.384Z,18.30
2023-01-21T14:54:33.609Z,16.83
2023-01-21T14:57:13.859Z,17.70
2023-01-21T14:59:46.386Z,18.50
2023-01-21T15:02:30.638Z,17.70
2023-01-21T15:05:12.186Z,18.57
2023-01-21T15:07:41.612Z,18.60
2023-01-21T15:10:27.207Z,18.63
2023-01-21T15:12:57.882Z,19.03
2023-01-21T15:15:34.410Z,18.57
2023-01-21T15:18:24.437Z,18.80
2023-01-21T15:20:58.146Z,17.83
2023-01-21T15:23:31.000Z,19.00
2023-01-21T15:26:12.827Z,18.30
2023-01-21T15:28:43.562Z,18.63
2023-01-21T15:31:23.283Z,18.00
2023-01-21T15:33:50.628Z,17.70
2023-01-21T15:36:20.641Z,17.73
2023-01-21T15:38:48.681Z,16.93
2023-01-21T15:41:52.353Z,18.53
2023-01-21T15:44:25.577Z,16.87
2023-01-21T15:47:35.497Z,17.67
2023-01-21T15:50:16.274Z,18.90
2023-01-21T15:53:26.001Z,17.93
2023-01-21T15:56:11.139Z,17.53
2023-01-21T15:59:15.912Z,16.50
2023-01-21T16:01:43.231Z,16.10
2023-01-21T16:04:22.640Z,16.07
2023-01-21T16:07:16.838Z,15.53
2023-01-21T16:10:16.382Z,15.80
2023-01-21T16:12:43.537Z,14.63
2023-01-21T16:15:36.166Z,16.27
2023-01-21T16:18:11.343Z,15.30
2023-01-21T16:20:46.074Z,15.60
2023-01-21T16:23:15.560Z,16.30
2023-01-21T16:25:50.348Z,15.57
2023-01-21T16:28:19.073Z,17.07
2023-01-21T16:30:54.965Z,15.43
2023-01-21T16:33:22.842Z,15.33
2023-01-21T16:35:52.110Z,15.77
2023-01-21T16:38:25.146Z,16.17
2023-01-21T16:41:14.831Z,15.77
2023-01-21T16:43:50.403Z,15.10
2023-01-21T16:46:22.286Z,15.23
2023-01-21T16:48:51.747Z,15.87
2023-01-21T16:51:22.141Z,15.93
2023-01-21T16:53:52.499Z,14.73
2023-01-21T16:56:28.906Z,16.20
2023-01-21T16:58:56.432Z,15.73
2023-01-21T17:01:26.931Z,15.60
2023-01-21T17:03:54.235Z,15.23
2023-01-21T17:06:26.478Z,15.10
2023-01-21T17:09:07.041Z,15.47
2023-01-21T17:11:36.577Z,15.47
2023-01-21T17:14:22.452Z,15.23
2023-01-21T17:16:50.075Z,15.40
2023-01-21T17:19:29.568Z,14.10
2023-01-21T17:22:00.281Z,13.83
2023-01-21T17:24:39.318Z,14.17
2023-01-21T17:27:14.223Z,13.97
2023-01-21T17:29:43.091Z,13.40
2023-01-21T17:32:31.048Z,14.40
2023-01-21T17:35:14.435Z,13.43
2023-01-21T17:37:53.567Z,13.77
2023-01-21T17:40:27.979Z,13.80
2023-01-21T17:42:56.622Z,14.03
2023-01-21T17:45:35.164Z,13.93
2023-01-21T17:48:09.714Z,14.27
2023-01-21T17:50:45.324Z,13.77
2023-01-21T17:53:21.551Z,14.83
2023-01-21T17:55:57.241Z,14.03
2023-01-21T17:58:45.824Z,14.47
2023-01-21T18:01:14.030Z,14.03
2023-01-21T18:03:41.580Z,14.93
2023-01-21T18:06:28.597Z,14.67
2023-01-21T18:08:57.215Z,13.47
2023-01-21T18:11:24.443Z,15.30
2023-01-21T18:13:52.586Z,14.03
2023-01-21T18:16:19.989Z,14.10
2023-01-21T18:18:47.314Z,14.57
2023-01-21T18:21:20.089Z,14.33
2023-01-21T18:23:48.631Z,14.00
2023-01-21T18:26:41.586Z,14.30
2023-01-21T18:29:11.674Z,14.37
2023-01-21T18:31:40.281Z,14.13
2023-01-21T18:34:07.876Z,14.43
2023-01-21T18:36:35.051Z,14.37
2023-01-21T18:39:02.192Z,15.20
2023-01-21T18:41:29.399Z,14.43
2023-01-21T18:43:56.562Z,14.50
2023-01-21T18:46:23.822Z,14.23
2023-01-21T18:48:50.968Z,13.93
2023-01-21T18:51:18.244Z,14.17
2023-01-21T18:53:45.571Z,13.70
2023-01-21T18:56:14.279Z,13.17
2023-01-21T18:58:41.980Z,13.80
2023-01-21T19:01:21.989Z,12.80
2023-01-21T19:03:52.666Z,13.33
2023-01-21T19:06:20.238Z,13.37
2023-01-21T19:08:48.728Z,13.10
2023-01-21T19:11:16.725Z,13.10
2023-01-21T19:13:43.963Z,12.77
2023-01-21T19:16:18.572Z,13.33
2023-01-21T19:18:46.176Z,13.17
2023-01-21T19:21:13.350Z,14.30
2023-01-21T19:23:40.526Z,13.47
2023-01-21T19:26:11.693Z,13.80
2023-01-21T19:28:38.887Z,14.43
2023-01-21T19:31:06.211Z,13.07
2023-01-21T19:33:33.475Z,14.33
2023-01-21T19:36:04.580Z,12.87
2023-01-21T19:38:31.868Z,14.07
2023-01-21T19:40:59.031Z,15.23
2023-01-21T19:43:26.356Z,14.70
2023-01-21T19:45:53.644Z,14.10
2023-01-21T19:48:21.749Z,14.20
2023-01-21T19:50:49.499Z,14.70
2023-01-21T19:53:18.582Z,14.27
2023-01-21T19:55:46.947Z,13.87
2023-01-21T19:58:27.313Z,14.60
2023-01-21T20:00:54.768Z,14.50
2023-01-21T20:03:25.946Z,14.73
2023-01-21T20:05:59.195Z,14.23
2023-01-21T20:08:28.987Z,14.13
2023-01-21T20:10:56.537Z,14.83
2023-01-21T20:13:23.853Z,14.33
2023-01-21T20:15:52.285Z,14.13
2023-01-21T20:18:19.435Z,16.63
2023-01-21T20:20:46.619Z,13.57
2023-01-21T20:23:15.909Z,14.10
2023-01-21T20:25:44.860Z,14.07
2023-01-21T20:28:20.292Z,14.77
2023-01-21T20:30:48.830Z,13.40
2023-01-21T20:33:18.845Z,14.67
2023-01-21T20:35:53.793Z,15.77
2023-01-21T20:38:38.877Z,14.83
2023-01-21T20:41:06.336Z,14.07
2023-01-21T20:43:34.141Z,13.60
2023-01-21T20:46:05.294Z,14.07
2023-01-21T20:48:36.240Z,13.53
2023-01-21T20:51:03.999Z,13.30
2023-01-21T20:53:31.395Z,15.23
2023-01-21T20:56:02.436Z,15.67
2023-01-21T20:58:29.711Z,14.33
2023-01-21T21:00:56.921Z,14.30
2023-01-21T21:03:24.124Z,14.40
2023-01-21T21:05:51.292Z,14.27
2023-01-21T21:08:21.009Z,14.87
2023-01-21T21:10:50.876Z,15.10
2023-01-21T21:13:19.093Z,14.97
2023-01-21T21:15:47.001Z,14.43
2023-01-21T21:18:14.735Z,14.00
2023-01-21T21:20:42.560Z,13.03
2023-01-21T21:23:13.971Z,13.70
2023-01-21T21:25:44.288Z,13.63
2023-01-21T21:28:16.884Z,13.63
2023-01-21T21:30:44.759Z,14.80
2023-01-21T21:33:18.698Z,14.43
2023-01-21T21:35:46.890Z,14.70
2023-01-21T21:38:21.681Z,14.20
2023-01-21T21:40:52.867Z,14.40
2023-01-21T21:43:33.353Z,13.63
2023-01-21T21:46:29.958Z,14.30
2023-01-21T21:48:57.197Z,14.87
2023-01-21T21:51:24.566Z,13.73
2023-01-21T21:53:51.947Z,13.63
2023-01-21T21:56:21.222Z,13.80
2023-01-21T21:58:49.346Z,13.87
